Time;durP1;ratioP1;P1;durP2;ratioP2;P2;SDS_P1;SDS_P2;PMS_P1;PMS_P2;Temp;Humidity;BMP_temperature;BMP_pressure;BME280_temperature;BME280_humidity;BME280_pressure;Samples;Min_cycle;Max_cycle;Signal;HPM_P1;HPM_P2
2022/03/30 00:01:25;;;;;;;;;;;14.80;57.00;;;;;;5045997;28;20375;-79
2022/03/30 00:03:52;;;;;;;;;;;14.80;57.00;;;;;;5046298;28;19962;-77
2022/03/30 00:06:18;;;;;;;;;;;14.80;57.10;;;;;;5048426;28;19933;-78
2022/03/30 00:08:45;;;;;;;;;;;14.80;57.20;;;;;;5050115;28;19929;-78
2022/03/30 00:11:12;;;;;;;;;;;14.80;57.20;;;;;;5050338;28;19932;-78
2022/03/30 00:13:39;;;;;;;;;;;14.70;57.30;;;;;;5047711;28;20278;-78
2022/03/30 00:16:08;;;;;;;;;;;14.70;57.30;;;;;;5044816;28;19929;-77
2022/03/30 00:18:35;;;;;;;;;;;14.70;57.30;;;;;;5047346;28;19929;-79
2022/03/30 00:21:01;;;;;;;;;;;14.70;57.40;;;;;;5047182;28;19929;-77
2022/03/30 00:23:28;;;;;;;;;;;14.70;57.50;;;;;;5050915;28;19929;-77
2022/03/30 00:25:55;;;;;;;;;;;14.60;57.60;;;;;;5046979;28;19937;-79
2022/03/30 00:28:23;;;;;;;;;;;14.70;57.70;;;;;;5045630;28;20535;-77
2022/03/30 00:30:50;;;;;;;;;;;14.70;57.80;;;;;;5046761;28;20396;-78
2022/03/30 00:33:18;;;;;;;;;;;14.60;57.90;;;;;;5047218;28;19928;-77
2022/03/30 00:35:46;;;;;;;;;;;14.60;58.00;;;;;;5044021;28;20022;-78
2022/03/30 00:38:12;;;;;;;;;;;14.60;58.10;;;;;;5043571;28;19936;-78
2022/03/30 00:40:39;;;;;;;;;;;14.60;58.20;;;;;;5047343;28;19935;-77
2022/03/30 00:43:06;;;;;;;;;;;14.60;58.40;;;;;;5042665;28;19991;-78
2022/03/30 00:45:32;;;;;;;;;;;14.50;58.50;;;;;;5041751;28;20589;-77
2022/03/30 00:47:59;;;;;;;;;;;14.50;58.60;;;;;;5044163;28;20602;-78
2022/03/30 00:50:27;;;;;;;;;;;14.50;58.80;;;;;;5045097;28;20328;-78
2022/03/30 00:52:56;;;;;;;;;;;14.50;58.90;;;;;;5049530;28;19928;-78
2022/03/30 00:55:24;;;;;;;;;;;14.50;59.10;;;;;;5042360;28;19929;-78
2022/03/30 00:57:52;;;;;;;;;;;14.50;59.20;;;;;;5046278;28;19932;-78
2022/03/30 01:00:19;;;;;;;;;;;14.50;59.40;;;;;;5046160;28;20439;-79
2022/03/30 01:02:49;;;;;;;;;;;14.50;59.50;;;;;;5047548;28;19932;-78
2022/03/30 01:05:16;;;;;;;;;;;14.40;59.60;;;;;;5046958;28;20706;-78
2022/03/30 01:07:44;;;;;;;;;;;14.40;59.80;;;;;;5047137;28;19979;-78
2022/03/30 01:10:11;;;;;;;;;;;14.40;60.00;;;;;;5047190;28;19929;-78
2022/03/30 01:12:39;;;;;;;;;;;14.40;60.20;;;;;;5043589;28;19977;-78
2022/03/30 01:15:06;;;;;;;;;;;14.30;60.30;;;;;;5045994;28;19929;-77
2022/03/30 01:17:33;;;;;;;;;;;14.30;60.50;;;;;;5053311;28;19929;-77
2022/03/30 01:19:59;;;;;;;;;;;14.30;60.70;;;;;;5050668;28;19932;-78
2022/03/30 01:22:27;;;;;;;;;;;14.30;60.90;;;;;;5049437;28;19971;-78
2022/03/30 01:24:54;;;;;;;;;;;14.30;60.60;;;;;;5046105;28;19929;-78
2022/03/30 01:27:20;;;;;;;;;;;14.30;61.50;;;;;;5044674;28;19940;-78
2022/03/30 01:32:31;;;;;;;;;;;14.20;61.80;;;;;;5049797;28;19931;-78
2022/03/30 01:34:58;;;;;;;;;;;14.20;61.90;;;;;;5049886;28;19936;-79
2022/03/30 01:37:26;;;;;;;;;;;14.20;62.10;;;;;;5045486;28;20034;-79
2022/03/30 01:39:55;;;;;;;;;;;14.20;62.20;;;;;;5048877;28;19928;-78
2022/03/30 01:42:21;;;;;;;;;;;14.20;62.20;;;;;;5046600;28;19952;-78
2022/03/30 01:44:49;;;;;;;;;;;14.20;62.40;;;;;;5043082;28;19963;-78
2022/03/30 01:47:15;;;;;;;;;;;14.20;62.50;;;;;;5047620;28;19932;-78
2022/03/30 01:49:42;;;;;;;;;;;14.10;62.50;;;;;;5048557;28;20392;-79
2022/03/30 01:52:09;;;;;;;;;;;14.10;62.60;;;;;;5047825;28;19935;-78
2022/03/30 01:54:37;;;;;;;;;;;14.10;62.70;;;;;;5042634;28;19928;-78
2022/03/30 01:57:06;;;;;;;;;;;14.00;62.80;;;;;;5051997;28;20065;-77
2022/03/30 01:59:33;;;;;;;;;;;14.00;63.00;;;;;;5044750;28;19933;-77
2022/03/30 02:01:59;;;;;;;;;;;14.00;63.20;;;;;;5046273;28;19951;-78
2022/03/30 02:04:26;;;;;;;;;;;14.00;63.30;;;;;;5047573;28;19932;-77
2022/03/30 02:06:53;;;;;;;;;;;14.00;63.30;;;;;;5051974;28;19935;-78
2022/03/30 02:09:20;;;;;;;;;;;14.00;63.40;;;;;;5044532;28;19929;-79
2022/03/30 02:11:47;;;;;;;;;;;14.00;63.50;;;;;;5050029;28;19933;-78
2022/03/30 02:14:14;;;;;;;;;;;13.90;63.60;;;;;;5043832;28;20326;-78
2022/03/30 02:16:41;;;;;;;;;;;13.90;63.80;;;;;;5047265;28;19936;-77
2022/03/30 02:19:08;;;;;;;;;;;13.90;63.90;;;;;;5047276;28;19932;-78
2022/03/30 02:21:34;;;;;;;;;;;13.90;64.20;;;;;;5050056;28;20421;-77
2022/03/30 02:24:01;;;;;;;;;;;13.80;64.30;;;;;;5046890;28;20018;-77
2022/03/30 02:26:30;;;;;;;;;;;13.90;64.50;;;;;;5050064;28;19995;-78
2022/03/30 02:28:56;;;;;;;;;;;13.80;64.60;;;;;;5044116;28;20312;-78
2022/03/30 02:31:24;;;;;;;;;;;13.80;64.60;;;;;;5045882;28;19929;-79
2022/03/30 02:33:51;;;;;;;;;;;13.80;64.80;;;;;;5048254;28;20720;-78
2022/03/30 02:36:18;;;;;;;;;;;13.80;65.00;;;;;;5043391;28;19940;-78
2022/03/30 02:38:45;;;;;;;;;;;13.70;65.10;;;;;;5045889;28;19936;-78
2022/03/30 02:41:12;;;;;;;;;;;13.70;65.20;;;;;;5052208;28;20380;-79
2022/03/30 02:43:39;;;;;;;;;;;13.70;65.40;;;;;;5045798;28;19936;-77
2022/03/30 02:46:06;;;;;;;;;;;13.70;65.50;;;;;;5042976;28;19933;-78
2022/03/30 02:48:35;;;;;;;;;;;13.70;65.70;;;;;;5048371;28;20302;-78
2022/03/30 02:51:03;;;;;;;;;;;13.60;65.90;;;;;;5045690;28;20016;-77
2022/03/30 02:53:30;;;;;;;;;;;13.60;66.00;;;;;;5046615;28;20011;-79
2022/03/30 02:55:57;;;;;;;;;;;13.60;66.10;;;;;;5045934;28;19951;-78
2022/03/30 02:58:24;;;;;;;;;;;13.60;66.30;;;;;;5044615;28;19933;-78
2022/03/30 03:00:51;;;;;;;;;;;13.50;66.40;;;;;;5047439;28;19932;-78
2022/03/30 03:03:17;;;;;;;;;;;13.50;66.40;;;;;;5047605;28;20384;-77
2022/03/30 03:05:45;;;;;;;;;;;13.50;66.50;;;;;;5046157;28;20468;-78
2022/03/30 03:08:12;;;;;;;;;;;13.50;66.70;;;;;;5046337;28;19932;-77
2022/03/30 03:10:40;;;;;;;;;;;13.50;66.70;;;;;;5042503;28;19936;-77
2022/03/30 03:13:07;;;;;;;;;;;13.40;66.80;;;;;;5040581;28;19932;-79
2022/03/30 03:15:35;;;;;;;;;;;13.40;66.90;;;;;;5038194;28;19929;-79
2022/03/30 03:18:02;;;;;;;;;;;13.40;66.90;;;;;;5040964;28;19929;-79
2022/03/30 03:20:29;;;;;;;;;;;13.40;67.10;;;;;;5042541;28;20308;-78
2022/03/30 03:22:57;;;;;;;;;;;13.30;67.10;;;;;;5045286;28;20396;-78
2022/03/30 03:25:24;;;;;;;;;;;13.30;67.20;;;;;;5046629;28;19936;-78
2022/03/30 03:27:50;;;;;;;;;;;13.30;67.20;;;;;;5044353;28;19928;-79
2022/03/30 03:30:18;;;;;;;;;;;13.30;67.30;;;;;;5046422;28;19933;-77
2022/03/30 03:32:44;;;;;;;;;;;13.20;67.40;;;;;;5047401;28;19950;-78
2022/03/30 03:35:11;;;;;;;;;;;13.30;67.50;;;;;;5047520;28;19928;-78
2022/03/30 03:37:38;;;;;;;;;;;13.20;67.50;;;;;;5047926;28;20312;-78
2022/03/30 03:40:08;;;;;;;;;;;13.20;67.40;;;;;;5046322;28;19929;-78
2022/03/30 03:42:35;;;;;;;;;;;13.20;67.40;;;;;;5048604;28;20004;-77
2022/03/30 03:45:02;;;;;;;;;;;13.20;67.30;;;;;;5041421;28;20312;-78
2022/03/30 03:47:29;;;;;;;;;;;13.20;67.30;;;;;;5045703;28;19935;-77
2022/03/30 03:49:55;;;;;;;;;;;13.20;67.30;;;;;;5045353;28;19929;-77
2022/03/30 03:52:22;;;;;;;;;;;13.20;67.30;;;;;;5042291;28;20458;-78
2022/03/30 03:54:49;;;;;;;;;;;13.20;67.30;;;;;;5046583;28;19935;-78
2022/03/30 03:57:17;;;;;;;;;;;13.10;67.30;;;;;;5046602;28;19932;-78
2022/03/30 03:59:43;;;;;;;;;;;13.10;67.40;;;;;;5042605;28;19932;-77
2022/03/30 04:02:10;;;;;;;;;;;13.20;67.60;;;;;;5044285;28;19929;-77
2022/03/30 04:04:37;;;;;;;;;;;13.10;67.60;;;;;;5044127;28;20527;-79
2022/03/30 04:07:04;;;;;;;;;;;13.10;67.70;;;;;;5043690;28;19972;-78
2022/03/30 04:09:31;;;;;;;;;;;13.10;67.90;;;;;;5045071;28;19928;-79
2022/03/30 04:11:57;;;;;;;;;;;13.10;68.10;;;;;;5045514;28;19933;-78
2022/03/30 04:14:25;;;;;;;;;;;13.00;68.20;;;;;;5042427;28;19932;-80
2022/03/30 04:16:52;;;;;;;;;;;13.00;68.40;;;;;;5046300;28;19933;-78
2022/03/30 04:19:18;;;;;;;;;;;13.00;68.60;;;;;;5045710;28;19935;-78
2022/03/30 04:21:45;;;;;;;;;;;13.00;68.70;;;;;;5045943;28;19944;-78
2022/03/30 04:24:12;;;;;;;;;;;13.00;68.80;;;;;;5044432;28;19928;-76
2022/03/30 04:26:38;;;;;;;;;;;12.90;68.70;;;;;;5046722;28;19933;-78
2022/03/30 04:29:05;;;;;;;;;;;12.90;68.80;;;;;;5041512;28;19928;-79
2022/03/30 04:31:33;;;;;;;;;;;12.90;69.00;;;;;;5043698;28;19929;-77
2022/03/30 04:34:00;;;;;;;;;;;12.90;69.10;;;;;;5048747;28;19936;-79
2022/03/30 04:36:27;;;;;;;;;;;12.90;69.20;;;;;;5052203;28;19933;-79
2022/03/30 04:38:53;;;;;;;;;;;12.70;69.20;;;;;;5048320;28;20029;-78
2022/03/30 04:41:20;;;;;;;;;;;12.90;69.40;;;;;;5049083;28;19928;-78
2022/03/30 04:43:47;;;;;;;;;;;12.80;69.40;;;;;;5047637;28;19929;-78
2022/03/30 04:46:13;;;;;;;;;;;12.80;69.50;;;;;;5044343;28;19928;-78
2022/03/30 04:48:41;;;;;;;;;;;12.80;69.60;;;;;;5053735;28;19983;-78
2022/03/30 04:51:08;;;;;;;;;;;12.80;69.90;;;;;;5048230;28;19937;-80
2022/03/30 04:53:35;;;;;;;;;;;12.70;70.10;;;;;;5052192;28;19940;-78
2022/03/30 04:56:01;;;;;;;;;;;12.70;70.30;;;;;;5048117;28;19929;-78
2022/03/30 04:58:30;;;;;;;;;;;12.70;70.50;;;;;;5046706;28;19933;-79
2022/03/30 05:00:58;;;;;;;;;;;12.70;71.00;;;;;;5045588;28;20423;-80
2022/03/30 05:03:25;;;;;;;;;;;12.70;70.70;;;;;;5052705;28;19928;-78
2022/03/30 05:05:54;;;;;;;;;;;12.70;70.70;;;;;;5048354;28;19933;-79
2022/03/30 05:08:21;;;;;;;;;;;12.70;70.90;;;;;;5054206;28;19956;-78
2022/03/30 05:10:48;;;;;;;;;;;12.60;71.00;;;;;;5049527;28;20502;-78
2022/03/30 05:13:15;;;;;;;;;;;12.60;71.20;;;;;;5050413;28;19935;-79
2022/03/30 05:15:42;;;;;;;;;;;12.60;71.30;;;;;;5048454;28;20366;-79
2022/03/30 05:18:08;;;;;;;;;;;12.50;71.50;;;;;;5055655;28;19978;-78
2022/03/30 05:20:35;;;;;;;;;;;12.50;71.60;;;;;;5051916;28;19936;-79
2022/03/30 05:23:03;;;;;;;;;;;12.50;71.60;;;;;;5051367;28;19963;-79
2022/03/30 05:25:29;;;;;;;;;;;12.50;71.60;;;;;;5052079;28;19936;-79
2022/03/30 05:27:56;;;;;;;;;;;12.50;71.80;;;;;;5048369;28;20040;-78
2022/03/30 05:30:23;;;;;;;;;;;12.50;71.90;;;;;;5047429;28;20421;-79
2022/03/30 05:32:50;;;;;;;;;;;12.50;72.00;;;;;;5052383;28;19936;-78
2022/03/30 05:35:16;;;;;;;;;;;12.40;71.90;;;;;;5052690;28;19925;-80
2022/03/30 05:37:46;;;;;;;;;;;12.40;72.00;;;;;;5050994;28;19940;-80
2022/03/30 05:40:15;;;;;;;;;;;12.40;72.00;;;;;;5047645;28;20340;-78
2022/03/30 05:42:42;;;;;;;;;;;12.30;76.40;;;;;;5050347;28;19936;-77
2022/03/30 05:45:08;;;;;;;;;;;12.10;76.70;;;;;;5048453;28;19933;-78
2022/03/30 05:47:35;;;;;;;;;;;12.10;76.40;;;;;;5043561;28;19930;-78
2022/03/30 05:50:03;;;;;;;;;;;12.10;76.10;;;;;;5049607;28;20294;-78
2022/03/30 05:52:29;;;;;;;;;;;12.00;75.70;;;;;;5050157;28;19986;-79
2022/03/30 05:54:56;;;;;;;;;;;12.00;75.60;;;;;;5051344;28;19929;-79
2022/03/30 05:57:24;;;;;;;;;;;12.10;75.80;;;;;;5045572;28;19928;-78
2022/03/30 05:59:51;;;;;;;;;;;12.10;75.60;;;;;;5047623;28;19939;-79
2022/03/30 06:02:17;;;;;;;;;;;12.00;75.40;;;;;;5054189;28;19931;-80
2022/03/30 06:04:45;;;;;;;;;;;12.00;76.10;;;;;;5049706;28;19928;-78
2022/03/30 06:07:12;;;;;;;;;;;12.00;75.20;;;;;;5044607;28;19929;-77
2022/03/30 06:09:38;;;;;;;;;;;12.00;75.10;;;;;;5049185;28;19940;-79
2022/03/30 06:12:06;;;;;;;;;;;12.10;75.20;;;;;;5056549;28;19929;-78
2022/03/30 06:14:34;;;;;;;;;;;12.00;75.10;;;;;;5052087;28;19928;-78
2022/03/30 06:17:03;;;;;;;;;;;12.00;75.10;;;;;;5053200;28;20320;-80
2022/03/30 06:19:31;;;;;;;;;;;12.00;75.00;;;;;;5049897;28;19925;-78
2022/03/30 06:21:57;;;;;;;;;;;12.00;75.00;;;;;;5048842;28;19935;-80
2022/03/30 06:24:24;;;;;;;;;;;12.00;75.10;;;;;;5046547;28;19935;-79
2022/03/30 06:26:51;;;;;;;;;;;12.00;81.40;;;;;;5047202;28;19928;-78
2022/03/30 06:29:18;;;;;;;;;;;12.20;90.40;;;;;;5044233;28;19940;-78
2022/03/30 06:31:46;;;;;;;;;;;12.30;92.20;;;;;;5040437;28;20321;-79
2022/03/30 06:34:12;;;;;;;;;;;12.40;92.80;;;;;;5039014;28;19929;-78
2022/03/30 06:36:39;;;;;;;;;;;12.60;93.70;;;;;;5044695;28;19928;-77
2022/03/30 06:39:06;;;;;;;;;;;12.70;94.70;;;;;;5046137;28;19929;-79
2022/03/30 06:41:32;;;;;;;;;;;12.80;95.20;;;;;;5044871;28;19929;-76
2022/03/30 06:43:59;;;;;;;;;;;12.90;95.40;;;;;;5044095;28;19933;-78
2022/03/30 06:46:26;;;;;;;;;;;13.00;95.60;;;;;;5045977;28;19960;-79
2022/03/30 06:48:54;;;;;;;;;;;13.10;95.70;;;;;;5046547;28;20035;-79
2022/03/30 06:51:20;;;;;;;;;;;13.20;95.60;;;;;;5043492;28;19928;-79
2022/03/30 06:53:47;;;;;;;;;;;13.30;95.40;;;;;;5044333;28;19936;-78
2022/03/30 06:56:14;;;;;;;;;;;13.40;95.40;;;;;;5044854;28;20026;-79
2022/03/30 06:58:40;;;;;;;;;;;13.40;95.20;;;;;;5044064;28;19929;-78
2022/03/30 07:01:07;;;;;;;;;;;13.40;95.00;;;;;;5043621;28;19929;-77
2022/03/30 07:03:33;;;;;;;;;;;13.50;94.90;;;;;;5043504;28;20385;-79
2022/03/30 07:06:03;;;;;;;;;;;13.50;94.70;;;;;;5046187;28;20400;-80
2022/03/30 07:11:14;;;;;;;;;;;13.50;94.50;;;;;;5044629;28;19932;-78
2022/03/30 07:13:41;;;;;;;;;;;13.60;94.30;;;;;;5042923;28;19928;-78
2022/03/30 07:16:07;;;;;;;;;;;13.60;94.10;;;;;;5047056;28;19929;-78
2022/03/30 07:18:34;;;;;;;;;;;13.60;93.90;;;;;;5044505;28;19951;-78
2022/03/30 07:21:02;;;;;;;;;;;13.70;93.70;;;;;;5047999;28;19935;-78
2022/03/30 07:23:28;;;;;;;;;;;13.60;93.50;;;;;;5043712;28;19933;-78
2022/03/30 07:25:56;;;;;;;;;;;13.70;93.50;;;;;;5047137;28;19939;-79
2022/03/30 07:28:22;;;;;;;;;;;13.80;93.40;;;;;;5041441;28;19936;-78
2022/03/30 07:30:49;;;;;;;;;;;13.70;93.10;;;;;;5044036;28;20012;-78
2022/03/30 07:33:16;;;;;;;;;;;13.70;93.00;;;;;;5044257;28;20442;-78
2022/03/30 07:35:46;;;;;;;;;;;13.70;92.90;;;;;;5043651;28;19936;-79
2022/03/30 07:38:14;;;;;;;;;;;13.70;92.70;;;;;;5042484;28;19928;-78
2022/03/30 07:40:41;;;;;;;;;;;13.70;92.60;;;;;;5043576;28;19968;-78
2022/03/30 07:43:09;;;;;;;;;;;13.70;92.50;;;;;;5045738;28;19936;-79
2022/03/30 07:45:36;;;;;;;;;;;13.70;92.30;;;;;;5042035;28;19932;-78
2022/03/30 07:48:02;;;;;;;;;;;13.70;92.10;;;;;;5045964;28;19932;-79
2022/03/30 07:50:29;;;;;;;;;;;13.80;92.00;;;;;;5043211;28;19956;-79
2022/03/30 07:52:56;;;;;;;;;;;13.70;91.80;;;;;;5043570;28;20830;-77
2022/03/30 07:55:24;;;;;;;;;;;13.70;91.70;;;;;;5044693;28;19925;-79
2022/03/30 07:57:51;;;;;;;;;;;13.70;91.40;;;;;;5039389;28;19928;-79
2022/03/30 08:00:18;;;;;;;;;;;13.70;91.30;;;;;;5043555;28;19939;-79
2022/03/30 08:02:46;;;;;;;;;;;13.70;91.20;;;;;;5048890;28;19929;-78
2022/03/30 08:05:13;;;;;;;;;;;13.60;91.10;;;;;;5044019;28;19929;-78
2022/03/30 08:07:39;;;;;;;;;;;13.60;91.10;;;;;;5042484;28;19933;-78
2022/03/30 08:10:08;;;;;;;;;;;13.60;91.00;;;;;;5050455;28;19936;-80
2022/03/30 08:12:36;;;;;;;;;;;13.50;90.90;;;;;;5049843;28;19929;-78
2022/03/30 08:15:03;;;;;;;;;;;13.60;90.90;;;;;;5049367;28;19936;-78
2022/03/30 08:17:30;;;;;;;;;;;13.50;90.80;;;;;;5048839;28;19929;-79
2022/03/30 08:19:57;;;;;;;;;;;13.50;90.80;;;;;;5049926;28;19986;-78
2022/03/30 08:22:25;;;;;;;;;;;13.50;90.70;;;;;;5053486;28;19933;-79
2022/03/30 08:24:52;;;;;;;;;;;13.50;90.60;;;;;;5049369;28;19942;-78
2022/03/30 08:27:19;;;;;;;;;;;13.50;90.50;;;;;;5050564;28;20475;-78
2022/03/30 08:29:47;;;;;;;;;;;13.50;90.40;;;;;;5044717;28;19960;-78
2022/03/30 08:32:15;;;;;;;;;;;13.50;90.30;;;;;;5050708;28;19929;-78
2022/03/30 08:34:42;;;;;;;;;;;13.40;90.20;;;;;;5049111;28;19928;-78
2022/03/30 08:37:09;;;;;;;;;;;13.40;90.10;;;;;;5050081;28;19932;-78
2022/03/30 08:39:36;;;;;;;;;;;13.30;90.10;;;;;;5052637;28;19982;-78
2022/03/30 08:42:03;;;;;;;;;;;13.30;90.30;;;;;;5043811;28;19932;-78
2022/03/30 08:44:30;;;;;;;;;;;13.30;89.90;;;;;;5045659;28;19929;-79
2022/03/30 08:46:58;;;;;;;;;;;13.30;89.80;;;;;;5050102;28;19940;-79
2022/03/30 08:49:26;;;;;;;;;;;13.20;89.50;;;;;;5053627;28;19935;-79
2022/03/30 08:51:53;;;;;;;;;;;13.20;89.40;;;;;;5048839;28;19940;-79
2022/03/30 08:54:20;;;;;;;;;;;13.20;89.20;;;;;;5047414;28;20730;-78
2022/03/30 08:56:48;;;;;;;;;;;13.20;89.30;;;;;;5049675;28;19936;-78
2022/03/30 08:59:17;;;;;;;;;;;13.10;89.30;;;;;;5055295;28;19924;-79
2022/03/30 09:01:44;;;;;;;;;;;13.10;89.20;;;;;;5057279;28;19936;-78
2022/03/30 09:04:14;;;;;;;;;;;13.10;89.20;;;;;;5052750;28;19967;-78
2022/03/30 09:06:41;;;;;;;;;;;13.10;89.20;;;;;;5046954;28;19936;-79
2022/03/30 09:09:09;;;;;;;;;;;13.10;89.10;;;;;;5051029;28;20040;-78
2022/03/30 09:11:45;;;;;;;;;;;13.10;89.10;;;;;;5045907;28;19929;-78
2022/03/30 09:14:12;;;;;;;;;;;13.10;89.20;;;;;;5044030;28;20406;-79
2022/03/30 09:16:43;;;;;;;;;;;13.10;89.30;;;;;;5046682;28;19929;-78
2022/03/30 09:19:10;;;;;;;;;;;13.00;89.10;;;;;;5046591;28;19939;-77
2022/03/30 09:21:42;;;;;;;;;;;13.00;89.00;;;;;;5056586;28;19928;-79
2022/03/30 09:24:09;;;;;;;;;;;13.00;89.20;;;;;;5049452;28;20320;-78
2022/03/30 09:26:36;;;;;;;;;;;13.00;89.20;;;;;;5046791;28;19960;-78
2022/03/30 09:29:03;;;;;;;;;;;13.00;88.90;;;;;;5049875;28;19963;-77
2022/03/30 09:31:30;;;;;;;;;;;13.00;88.70;;;;;;5049976;28;19933;-78
2022/03/30 09:33:59;;;;;;;;;;;13.00;88.80;;;;;;5049864;28;19936;-78
2022/03/30 09:36:29;;;;;;;;;;;12.90;88.60;;;;;;5051308;28;19924;-79
2022/03/30 09:38:58;;;;;;;;;;;12.90;88.60;;;;;;5047488;28;19971;-78
2022/03/30 09:41:24;;;;;;;;;;;12.90;88.50;;;;;;5050034;28;20347;-78
2022/03/30 09:44:01;;;;;;;;;;;12.80;88.40;;;;;;5047414;28;19929;-78
2022/03/30 09:46:28;;;;;;;;;;;12.80;88.50;;;;;;5045980;28;19932;-78
2022/03/30 09:48:55;;;;;;;;;;;12.80;88.40;;;;;;5049721;28;19924;-78
2022/03/30 09:51:22;;;;;;;;;;;12.80;88.50;;;;;;5048312;28;20655;-77
2022/03/30 09:53:49;;;;;;;;;;;12.80;88.50;;;;;;5045876;28;19929;-78
2022/03/30 09:56:18;;;;;;;;;;;12.70;88.40;;;;;;5046142;28;19928;-76
2022/03/30 09:58:45;;;;;;;;;;;12.80;88.40;;;;;;5046966;28;19933;-78
2022/03/30 10:01:13;;;;;;;;;;;12.70;88.40;;;;;;5042779;28;19935;-78
2022/03/30 10:03:42;;;;;;;;;;;12.70;88.40;;;;;;5049047;28;19938;-77
2022/03/30 10:06:10;;;;;;;;;;;12.70;88.30;;;;;;5046417;28;19929;-77
2022/03/30 10:08:36;;;;;;;;;;;12.70;88.30;;;;;;5043880;28;19936;-78
2022/03/30 10:11:03;;;;;;;;;;;12.60;88.10;;;;;;5049321;28;19932;-78
2022/03/30 10:13:31;;;;;;;;;;;12.60;88.10;;;;;;5047016;28;20183;-79
2022/03/30 10:15:59;;;;;;;;;;;12.60;88.20;;;;;;5047943;28;19963;-78
2022/03/30 10:18:25;;;;;;;;;;;12.60;88.20;;;;;;5051115;28;19928;-80
2022/03/30 10:21:02;;;;;;;;;;;12.50;88.10;;;;;;5049147;28;19964;-78
2022/03/30 10:23:34;;;;;;;;;;;12.50;88.20;;;;;;5048425;28;20377;-78
2022/03/30 10:26:07;;;;;;;;;;;12.50;88.20;;;;;;5049428;28;20407;-78
2022/03/30 10:28:46;;;;;;;;;;;12.50;88.10;;;;;;5048788;28;19971;-78
2022/03/30 10:31:13;;;;;;;;;;;12.50;88.30;;;;;;5052396;28;19935;-78
2022/03/30 10:33:41;;;;;;;;;;;12.40;88.30;;;;;;5054143;28;20653;-78
2022/03/30 10:36:24;;;;;;;;;;;12.40;88.30;;;;;;5050260;28;20079;-78
2022/03/30 10:39:26;;;;;;;;;;;12.40;88.40;;;;;;5047374;28;19940;-79
2022/03/30 10:41:54;;;;;;;;;;;12.40;89.20;;;;;;4966796;28;20426;-78
2022/03/30 10:44:35;;;;;;;;;;;12.30;88.50;;;;;;4964104;28;19930;-78
2022/03/30 10:47:08;;;;;;;;;;;12.30;88.40;;;;;;5012552;28;19993;-78
2022/03/30 10:49:42;;;;;;;;;;;12.30;88.50;;;;;;5049468;28;20012;-78
2022/03/30 10:52:35;;;;;;;;;;;12.30;88.60;;;;;;5051655;28;19929;-78
2022/03/30 10:55:21;;;;;;;;;;;12.30;88.60;;;;;;5047764;28;19932;-77
2022/03/30 10:57:49;;;;;;;;;;;12.30;88.50;;;;;;5049970;28;19932;-79
2022/03/30 11:00:20;;;;;;;;;;;12.20;88.50;;;;;;5047786;28;19928;-78
2022/03/30 11:02:47;;;;;;;;;;;12.30;88.60;;;;;;5050728;28;19933;-77
2022/03/30 11:05:15;;;;;;;;;;;12.20;88.50;;;;;;5055545;28;19925;-78
2022/03/30 11:07:42;;;;;;;;;;;12.30;88.60;;;;;;5051287;28;19925;-78
2022/03/30 11:10:30;;;;;;;;;;;12.20;88.50;;;;;;5048108;28;20317;-79
2022/03/30 11:13:02;;;;;;;;;;;12.20;88.50;;;;;;5047222;28;19933;-78
2022/03/30 11:15:30;;;;;;;;;;;12.20;88.60;;;;;;5054187;28;19933;-78
2022/03/30 11:18:11;;;;;;;;;;;12.10;88.60;;;;;;5049827;28;20285;-78
2022/03/30 11:20:38;;;;;;;;;;;12.20;88.60;;;;;;5048739;28;19935;-78
2022/03/30 11:23:20;;;;;;;;;;;12.20;88.60;;;;;;5046122;28;19935;-78
2022/03/30 11:25:52;;;;;;;;;;;12.10;89.30;;;;;;5049189;28;19929;-79
2022/03/30 11:28:19;;;;;;;;;;;12.10;88.60;;;;;;5048239;28;19941;-78
2022/03/30 11:30:52;;;;;;;;;;;12.10;89.30;;;;;;5058635;28;20010;-78
2022/03/30 11:33:21;;;;;;;;;;;12.10;88.60;;;;;;5049740;28;19929;-79
2022/03/30 11:35:49;;;;;;;;;;;12.10;88.60;;;;;;5051431;28;19928;-78
2022/03/30 11:38:21;;;;;;;;;;;12.10;88.50;;;;;;5049163;28;19979;-78
2022/03/30 11:40:48;;;;;;;;;;;12.10;88.60;;;;;;5048998;28;19987;-79
2022/03/30 11:43:16;;;;;;;;;;;12.10;88.70;;;;;;5047116;28;20688;-78
2022/03/30 11:45:43;;;;;;;;;;;12.10;88.70;;;;;;5049002;28;19933;-78
2022/03/30 11:48:12;;;;;;;;;;;12.10;88.70;;;;;;5052171;28;19932;-78
2022/03/30 11:50:39;;;;;;;;;;;12.10;88.60;;;;;;5049229;28;19936;-78
2022/03/30 11:53:07;;;;;;;;;;;12.10;88.70;;;;;;5047646;28;19935;-79
2022/03/30 11:55:35;;;;;;;;;;;12.00;88.70;;;;;;5054035;28;19932;-79
2022/03/30 11:58:01;;;;;;;;;;;12.00;88.60;;;;;;5052490;28;20025;-78
2022/03/30 12:00:29;;;;;;;;;;;12.00;88.60;;;;;;5050481;28;20713;-79
2022/03/30 12:02:56;;;;;;;;;;;12.00;88.60;;;;;;5048957;28;20444;-78
2022/03/30 12:05:25;;;;;;;;;;;12.00;88.60;;;;;;5055943;28;19925;-78
2022/03/30 12:07:52;;;;;;;;;;;12.00;88.60;;;;;;5044567;28;20388;-77
2022/03/30 12:10:19;;;;;;;;;;;12.00;88.60;;;;;;5047730;28;19928;-80
2022/03/30 12:12:46;;;;;;;;;;;12.00;88.60;;;;;;5049230;28;19936;-79
2022/03/30 12:15:16;;;;;;;;;;;11.90;88.50;;;;;;5047912;28;20404;-78
2022/03/30 12:17:43;;;;;;;;;;;12.00;88.80;;;;;;5049987;28;20000;-79
2022/03/30 12:20:11;;;;;;;;;;;11.90;88.80;;;;;;5053178;28;20172;-79
2022/03/30 12:22:39;;;;;;;;;;;11.90;88.80;;;;;;5049331;28;19936;-78
2022/03/30 12:25:16;;;;;;;;;;;11.90;88.90;;;;;;5047087;28;19940;-79
2022/03/30 12:27:42;;;;;;;;;;;11.90;88.90;;;;;;5043923;28;19935;-77
2022/03/30 12:30:09;;;;;;;;;;;11.90;88.90;;;;;;5050140;28;19929;-79
2022/03/30 12:32:36;;;;;;;;;;;11.90;88.90;;;;;;5049248;28;20507;-78
2022/03/30 12:35:07;;;;;;;;;;;11.90;88.90;;;;;;5050499;28;19929;-78
2022/03/30 12:37:33;;;;;;;;;;;11.90;89.00;;;;;;5047677;28;20346;-78
2022/03/30 12:40:09;;;;;;;;;;;11.90;88.90;;;;;;5047443;28;20284;-78
2022/03/30 12:42:36;;;;;;;;;;;11.90;88.80;;;;;;5050193;28;19963;-78
2022/03/30 12:45:05;;;;;;;;;;;12.00;88.70;;;;;;5049988;28;19929;-78
2022/03/30 12:47:34;;;;;;;;;;;11.90;88.70;;;;;;5053583;28;19928;-79
2022/03/30 12:50:01;;;;;;;;;;;11.90;88.60;;;;;;5054063;28;20667;-79
2022/03/30 12:52:32;;;;;;;;;;;11.90;88.50;;;;;;5055284;28;19935;-79
2022/03/30 12:55:13;;;;;;;;;;;11.90;88.40;;;;;;5056975;28;20389;-79
2022/03/30 12:57:49;;;;;;;;;;;12.00;88.40;;;;;;5054487;28;19929;-78
2022/03/30 13:00:16;;;;;;;;;;;11.90;88.20;;;;;;5055097;28;19929;-77
2022/03/30 13:02:43;;;;;;;;;;;11.90;88.10;;;;;;5053827;28;19924;-79
2022/03/30 13:05:10;;;;;;;;;;;11.90;88.10;;;;;;5055688;28;19929;-78
2022/03/30 13:07:48;;;;;;;;;;;11.90;88.00;;;;;;5051396;28;19932;-79
2022/03/30 13:10:18;;;;;;;;;;;11.90;87.90;;;;;;5053157;28;19935;-79
2022/03/30 13:12:46;;;;;;;;;;;11.90;87.90;;;;;;5058724;28;20000;-79
2022/03/30 13:15:14;;;;;;;;;;;11.90;88.00;;;;;;5055668;28;19925;-78
2022/03/30 13:18:03;;;;;;;;;;;11.90;88.00;;;;;;5052417;28;19938;-77
2022/03/30 13:20:30;;;;;;;;;;;11.90;88.00;;;;;;5057993;28;19928;-78
2022/03/30 13:22:58;;;;;;;;;;;11.90;88.00;;;;;;5052769;28;19933;-79
2022/03/30 13:25:27;;;;;;;;;;;11.90;87.80;;;;;;5052998;28;19991;-78
2022/03/30 13:27:54;;;;;;;;;;;11.90;87.60;;;;;;5052781;28;19935;-79
2022/03/30 13:30:21;;;;;;;;;;;11.90;87.40;;;;;;5055285;28;20320;-79
2022/03/30 13:32:47;;;;;;;;;;;11.90;87.30;;;;;;5053162;28;20385;-80
2022/03/30 13:35:14;;;;;;;;;;;11.90;87.20;;;;;;5055954;28;19928;-77
2022/03/30 13:37:41;;;;;;;;;;;11.90;87.20;;;;;;5051820;28;19928;-78
2022/03/30 13:40:09;;;;;;;;;;;11.90;87.90;;;;;;5048418;28;19940;-80
2022/03/30 13:42:36;;;;;;;;;;;11.90;87.10;;;;;;5052780;28;19925;-79
2022/03/30 13:45:03;;;;;;;;;;;11.90;87.00;;;;;;5049040;28;19929;-69
2022/03/30 13:47:30;;;;;;;;;;;11.90;87.00;;;;;;5046706;28;19940;-69
2022/03/30 13:49:57;;;;;;;;;;;11.90;86.90;;;;;;5052192;28;19940;-68
2022/03/30 13:52:24;;;;;;;;;;;11.90;86.80;;;;;;5046100;28;19929;-69
2022/03/30 13:54:51;;;;;;;;;;;11.90;86.80;;;;;;5052972;28;19928;-69
2022/03/30 13:57:17;;;;;;;;;;;11.90;86.70;;;;;;5048191;28;19936;-69
2022/03/30 13:59:45;;;;;;;;;;;11.90;86.70;;;;;;5046564;28;19928;-68
2022/03/30 14:02:12;;;;;;;;;;;11.90;86.70;;;;;;5046606;28;20388;-68
2022/03/30 14:04:39;;;;;;;;;;;11.90;86.70;;;;;;5048236;28;19928;-69
2022/03/30 14:07:06;;;;;;;;;;;11.90;86.80;;;;;;5051473;28;19929;-69
2022/03/30 14:09:34;;;;;;;;;;;11.90;86.90;;;;;;5049034;28;19933;-68
2022/03/30 14:12:01;;;;;;;;;;;11.90;86.80;;;;;;5048496;28;19929;-69
2022/03/30 14:14:28;;;;;;;;;;;11.80;86.70;;;;;;5046700;28;19931;-69
2022/03/30 14:16:58;;;;;;;;;;;11.90;86.90;;;;;;5048804;28;19977;-69
2022/03/30 14:19:25;;;;;;;;;;;11.90;86.90;;;;;;5049572;28;19958;-69
2022/03/30 14:21:51;;;;;;;;;;;11.90;86.90;;;;;;5053043;28;19933;-69
2022/03/30 14:24:18;;;;;;;;;;;11.90;86.90;;;;;;5048643;28;19929;-69
2022/03/30 14:26:44;;;;;;;;;;;11.90;87.00;;;;;;5047657;28;19929;-69